Vero Beach, Florida
Current Conditions -  °F | °C
As of 3:53 PM on Thursday 23 Oct 2014 (Local Time) from KVRB Reporting Station
Few Clouds Few Clouds  
Wind Chill: 26°   Ceiling: Unl
Heat Index: 27°   Visibility: 10mi
Dew Point: 16°   Wind: 13mph
Humidity: 52%   Direction: 50°NE
Pressure: 29.93"   Gusts: NA
Location:  27.64°N, 80.39°W
Report Text: KVRB 231953Z AUTO 05011KT 10SM FEW041 26/16 A2993 RMK AO2 SLP133 T02610156
Loading
Personal Weather Stations






























Interactive Weather Map
Tropical Storm Tracking
New forecast layout! Learn more

10-Day Weather Forecast

Advertisements
Track Severe Weather on mobile